Terminal Aerodrome Forecast
Issued by NWS

Home | Current Version | Previous Version | Text Only | Print | Product List | Glossary On
Versions: 1 2 3 4 5 6 7 8 9 10 11 12 13 14 15 16 17
000
FTUS45 KRIW 271136
TAFBPI
TAF
KBPI 271136Z 2712/2812 VRB04KT 1/4SM FZFG VV001
     FM271530 VRB04KT 2SM BR OVC005
     FM271630 VRB05KT P6SM VCFG SCT008 BKN025
     FM271800 19006KT P6SM SCT070
     FM272100 16006KT P6SM VCSH SCT035 BKN060
     FM280200 13009KT P6SM SCT040 BKN080=

USA.gov is the U.S. government's official web portal to all federal, state and local government web resources and services.